MSC Ines — 3EFZ3 — position and weather

sailwx.info

Track history (hours):
 
Tides and Currents Weather Stations Pressure Air Temp Water Temp Dewpoint Dewpoint Depression Visibility Wind Speed Wind Dir Waves Ship Positions

MSC Ines

Last reported at 2014-Jul-22 00:31 UTC. Time now 2014-Jul-23 11:31 UTC.
Position N 35°05' E 140°29'.

Length 349 m; draft 14.4 m.

Type: Ship (hazmat cat A). MMSI: 356112000.

Date/timePositionNaut miles runAvg speedWind from/ knotsBaromVisibWave heightAir tempDewpointWater temp
2014-Jul-22 00:31N 35°05' E 140°29'1920.3
2014-Jul-21 23:33N 34°56' E 140°09'2119.2
2014-Jul-21 22:28N 34°54' E 139°43'1617.8
2014-Jul-21 21:33N 35°10' E 139°45'1211.9
2014-Jul-21 20:33N 35°22' E 139°42'312.6
2014-Jul-21 20:18N 35°25' E 139°43'3 3.8
2014-Jul-21 19:33N 35°28' E 139°42'0 0.0
2014-Jul-21 18:33N 35°28' E 139°42'0 0.0
2014-Jul-21 17:34N 35°28' E 139°42'0 0.0
2014-Jul-21 16:33N 35°28' E 139°42'0 0.0
2014-Jul-21 15:34N 35°28' E 139°42'0 0.0
2014-Jul-21 14:33N 35°28' E 139°42'0 0.0
2014-Jul-21 13:33N 35°28' E 139°42'0 0.0
2014-Jul-21 12:34N 35°28' E 139°42'0 0.0
2014-Jul-21 11:33N 35°28' E 139°42'0 0.0
2014-Jul-21 10:30N 35°28' E 139°42'0 0.0
2014-Jul-21 09:33N 35°28' E 139°42'0 0.0
2014-Jul-21 08:33N 35°28' E 139°42'2 1.8
2014-Jul-21 07:33N 35°27' E 139°43'9 8.7
2014-Jul-21 06:33N 35°18' E 139°45'1110.5
2014-Jul-21 05:33N 35°07' E 139°45'1211.6
2014-Jul-21 04:33N 34°57' E 139°40'1211.8
2014-Jul-21 03:33N 34°46' E 139°34'  
2014-Jul-17 10:28N 30°56' E 123°43'1920.7
2014-Jul-17 09:33N 30°47' E 123°23'2520.1
2014-Jul-17 08:19N 30°35' E 122°58'1519.8
2014-Jul-17 07:33N 30°33' E 122°41'1918.6
2014-Jul-17 06:33N 30°32' E 122°19'1212.2
2014-Jul-17 05:33N 30°36' E 122°05'2 2.5
2014-Jul-17 04:33N 30°38' E 122°03'0 0.0
2014-Jul-17 01:25N 30°38' E 122°03'0 0.0
2014-Jul-16 13:28N 30°37' E 122°03'6 6.5
2014-Jul-16 12:33N 30°34' E 122°09'9 9.4
2014-Jul-16 11:33N 30°33' E 122°20'1313.3
2014-Jul-16 10:33N 30°31' E 122°35'5 3.8
2014-Jul-16 09:19N 30°32' E 122°40'1 1.7
2014-Jul-16 08:33N 30°32' E 122°39'4 3.5
2014-Jul-16 07:33N 30°35' E 122°41'1 0.9
2014-Jul-16 06:33N 30°34' E 122°42'3 2.5
2014-Jul-16 05:33N 30°32' E 122°44'8 7.5
2014-Jul-16 04:33N 30°26' E 122°48'8 8.2
2014-Jul-16 03:33N 30°20' E 122°55'10 9.5
2014-Jul-16 02:32N 30°11' E 122°59'13 9.5
2014-Jul-16 01:12N 30°01' E 122°51'17 9.8
2014-Jul-15 23:30N 29°49' E 122°38'1010.4
2014-Jul-15 22:34N 29°43' E 122°28'1312.5
2014-Jul-15 21:33N 29°48' E 122°15'1212.2
2014-Jul-15 20:33N 29°54' E 122°03'1 1.2
2014-Jul-15 19:33N 29°54' E 122°02'0 0.0
2014-Jul-15 18:33N 29°54' E 122°02'0 0.0
2014-Jul-15 17:33N 29°54' E 122°02'0 0.0
2014-Jul-15 16:33N 29°54' E 122°02'0 0.0
2014-Jul-15 15:27N 29°54' E 122°02'0 0.0
2014-Jul-15 14:33N 29°54' E 122°02'0 0.1
2014-Jul-15 13:33N 29°54' E 122°02'0 0.0
2014-Jul-15 12:24N 29°54' E 122°02'0 0.0
2014-Jul-15 11:31N 29°54' E 122°02'0 0.0
2014-Jul-15 10:31N 29°54' E 122°02'0 0.0
2014-Jul-15 09:31N 29°54' E 122°02'0 0.0
2014-Jul-15 08:31N 29°54' E 122°02'0 0.0
2014-Jul-15 07:31N 29°54' E 122°02'0 0.0
2014-Jul-15 06:31N 29°54' E 122°02'0 0.0
2014-Jul-15 05:31N 29°54' E 122°02'5 5.1
2014-Jul-15 04:33N 29°56' E 122°07'1212.3
2014-Jul-15 03:34N 29°47' E 122°17'1010.3
2014-Jul-15 02:33N 29°43' E 122°28'10 9.7
2014-Jul-15 01:33N 29°41' E 122°39'6 6.3
2014-Jul-15 00:33N 29°35' E 122°38'2210.2
2014-Jul-14 22:24N 29°13' E 122°38'21517.7
2014-Jul-14 10:13N 25°59' E 120°51'1218.7
2014-Jul-14 09:33N 25°51' E 120°42'10020.0
2014-Jul-14 04:33N 24°40' E 119°24'5919.7
2014-Jul-14 01:33N 24°03' E 118°34'2020.0
2014-Jul-14 00:33N 23°50' E 118°17'2120.7
2014-Jul-13 23:32N 23°37' E 117°59'6120.2
2014-Jul-13 20:30N 22°53' E 117°13'174 5.7
2014-Jul-12 14:05N 22°20' E 114°07'10 0.8
2014-Jul-12 01:04N 22°10' E 114°10'  
Track history (hours):
 
Tides and Currents Weather Stations Pressure Air Temp Water Temp Dewpoint Dewpoint Depression Visibility Wind Speed Wind Dir Waves Ship Positions

MSC Ines

Last reported at 2014-Jul-22 00:31 UTC. Time now 2014-Jul-23 11:31 UTC.
Position N 35°05' E 140°29'.

Length 349 m; draft 14.4 m.

Type: Ship (hazmat cat A). MMSI: 356112000.

Date/timePositionNaut miles runAvg speedWind from/ knotsBaromVisibWave heightAir tempDewpointWater temp
2014-Jul-22 00:31N 35°05' E 140°29'1920.3
2014-Jul-21 23:33N 34°56' E 140°09'2119.2
2014-Jul-21 22:28N 34°54' E 139°43'1617.8
2014-Jul-21 21:33N 35°10' E 139°45'1211.9
2014-Jul-21 20:33N 35°22' E 139°42'312.6
2014-Jul-21 20:18N 35°25' E 139°43'3 3.8
2014-Jul-21 19:33N 35°28' E 139°42'0 0.0
2014-Jul-21 18:33N 35°28' E 139°42'0 0.0
2014-Jul-21 17:34N 35°28' E 139°42'0 0.0
2014-Jul-21 16:33N 35°28' E 139°42'0 0.0
2014-Jul-21 15:34N 35°28' E 139°42'0 0.0
2014-Jul-21 14:33N 35°28' E 139°42'0 0.0
2014-Jul-21 13:33N 35°28' E 139°42'0 0.0
2014-Jul-21 12:34N 35°28' E 139°42'0 0.0
2014-Jul-21 11:33N 35°28' E 139°42'0 0.0
2014-Jul-21 10:30N 35°28' E 139°42'0 0.0
2014-Jul-21 09:33N 35°28' E 139°42'0 0.0
2014-Jul-21 08:33N 35°28' E 139°42'2 1.8
2014-Jul-21 07:33N 35°27' E 139°43'9 8.7
2014-Jul-21 06:33N 35°18' E 139°45'1110.5
2014-Jul-21 05:33N 35°07' E 139°45'1211.6
2014-Jul-21 04:33N 34°57' E 139°40'1211.8
2014-Jul-21 03:33N 34°46' E 139°34'  
2014-Jul-17 10:28N 30°56' E 123°43'1920.7
2014-Jul-17 09:33N 30°47' E 123°23'2520.1
2014-Jul-17 08:19N 30°35' E 122°58'1519.8
2014-Jul-17 07:33N 30°33' E 122°41'1918.6
2014-Jul-17 06:33N 30°32' E 122°19'1212.2
2014-Jul-17 05:33N 30°36' E 122°05'2 2.5
2014-Jul-17 04:33N 30°38' E 122°03'0 0.0
2014-Jul-17 01:25N 30°38' E 122°03'0 0.0
2014-Jul-16 13:28N 30°37' E 122°03'6 6.5
2014-Jul-16 12:33N 30°34' E 122°09'9 9.4
2014-Jul-16 11:33N 30°33' E 122°20'1313.3
2014-Jul-16 10:33N 30°31' E 122°35'5 3.8
2014-Jul-16 09:19N 30°32' E 122°40'1 1.7
2014-Jul-16 08:33N 30°32' E 122°39'4 3.5
2014-Jul-16 07:33N 30°35' E 122°41'1 0.9
2014-Jul-16 06:33N 30°34' E 122°42'3 2.5
2014-Jul-16 05:33N 30°32' E 122°44'8 7.5
2014-Jul-16 04:33N 30°26' E 122°48'8 8.2
2014-Jul-16 03:33N 30°20' E 122°55'10 9.5
2014-Jul-16 02:32N 30°11' E 122°59'13 9.5
2014-Jul-16 01:12N 30°01' E 122°51'17 9.8
2014-Jul-15 23:30N 29°49' E 122°38'1010.4
2014-Jul-15 22:34N 29°43' E 122°28'1312.5
2014-Jul-15 21:33N 29°48' E 122°15'1212.2
2014-Jul-15 20:33N 29°54' E 122°03'1 1.2
2014-Jul-15 19:33N 29°54' E 122°02'0 0.0
2014-Jul-15 18:33N 29°54' E 122°02'0 0.0
2014-Jul-15 17:33N 29°54' E 122°02'0 0.0
2014-Jul-15 16:33N 29°54' E 122°02'0 0.0
2014-Jul-15 15:27N 29°54' E 122°02'0 0.0
2014-Jul-15 14:33N 29°54' E 122°02'0 0.1
2014-Jul-15 13:33N 29°54' E 122°02'0 0.0
2014-Jul-15 12:24N 29°54' E 122°02'0 0.0
2014-Jul-15 11:31N 29°54' E 122°02'0 0.0
2014-Jul-15 10:31N 29°54' E 122°02'0 0.0
2014-Jul-15 09:31N 29°54' E 122°02'0 0.0
2014-Jul-15 08:31N 29°54' E 122°02'0 0.0
2014-Jul-15 07:31N 29°54' E 122°02'0 0.0
2014-Jul-15 06:31N 29°54' E 122°02'0 0.0
2014-Jul-15 05:31N 29°54' E 122°02'5 5.1
2014-Jul-15 04:33N 29°56' E 122°07'1212.3
2014-Jul-15 03:34N 29°47' E 122°17'1010.3
2014-Jul-15 02:33N 29°43' E 122°28'10 9.7
2014-Jul-15 01:33N 29°41' E 122°39'6 6.3
2014-Jul-15 00:33N 29°35' E 122°38'2210.2
2014-Jul-14 22:24N 29°13' E 122°38'21517.7
2014-Jul-14 10:13N 25°59' E 120°51'1218.7
2014-Jul-14 09:33N 25°51' E 120°42'10020.0
2014-Jul-14 04:33N 24°40' E 119°24'5919.7
2014-Jul-14 01:33N 24°03' E 118°34'2020.0
2014-Jul-14 00:33N 23°50' E 118°17'2120.7
2014-Jul-13 23:32N 23°37' E 117°59'6120.2
2014-Jul-13 20:30N 22°53' E 117°13'174 5.7
2014-Jul-12 14:05N 22°20' E 114°07'10 0.8
2014-Jul-12 01:04N 22°10' E 114°10'  

Dump ship's entire track history